sensor_id;sensor_type;location;lat;lon;timestamp;P1;durP1;ratioP1;P2;durP2;ratioP2
39214;SDS011;24932;51.746;14.334;2022-09-29T00:00:40;33.05;;;12.05;;
39214;SDS011;24932;51.746;14.334;2022-09-29T00:04:40;27.17;;;11.45;;
39214;SDS011;24932;51.746;14.334;2022-09-29T00:08:40;27.7;;;11.23;;
39214;SDS011;24932;51.746;14.334;2022-09-29T00:12:40;35.2;;;12.47;;
39214;SDS011;24932;51.746;14.334;2022-09-29T00:16:41;30.27;;;11.73;;
39214;SDS011;24932;51.746;14.334;2022-09-29T00:20:40;33.63;;;12.17;;
39214;SDS011;24932;51.746;14.334;2022-09-29T00:24:40;38.1;;;14.23;;
39214;SDS011;24932;51.746;14.334;2022-09-29T00:28:44;43.1;;;14.3;;
39214;SDS011;24932;51.746;14.334;2022-09-29T00:32:40;43.53;;;14.47;;
39214;SDS011;24932;51.746;14.334;2022-09-29T00:36:40;44.0;;;13.73;;
39214;SDS011;24932;51.746;14.334;2022-09-29T00:40:40;54.5;;;15.57;;
39214;SDS011;24932;51.746;14.334;2022-09-29T00:45:15;42.7;;;13.93;;
39214;SDS011;24932;51.746;14.334;2022-09-29T00:48:41;39.07;;;13.7;;
39214;SDS011;24932;51.746;14.334;2022-09-29T00:52:41;39.9;;;13.8;;
39214;SDS011;24932;51.746;14.334;2022-09-29T00:56:40;43.33;;;13.27;;
39214;SDS011;24932;51.746;14.334;2022-09-29T01:00:40;45.2;;;13.63;;
39214;SDS011;24932;51.746;14.334;2022-09-29T01:04:40;40.0;;;13.4;;
39214;SDS011;24932;51.746;14.334;2022-09-29T01:08:41;39.43;;;14.5;;
39214;SDS011;24932;51.746;14.334;2022-09-29T01:12:41;53.2;;;14.8;;
39214;SDS011;24932;51.746;14.334;2022-09-29T01:16:40;56.3;;;15.23;;
39214;SDS011;24932;51.746;14.334;2022-09-29T01:20:42;52.87;;;15.8;;
39214;SDS011;24932;51.746;14.334;2022-09-29T01:24:47;45.87;;;15.03;;
39214;SDS011;24932;51.746;14.334;2022-09-29T01:28:46;47.47;;;14.8;;
39214;SDS011;24932;51.746;14.334;2022-09-29T01:33:19;55.17;;;17.07;;
39214;SDS011;24932;51.746;14.334;2022-09-29T01:36:43;82.83;;;18.93;;
39214;SDS011;24932;51.746;14.334;2022-09-29T01:40:43;55.63;;;18.23;;
39214;SDS011;24932;51.746;14.334;2022-09-29T01:44:41;71.27;;;21.37;;
39214;SDS011;24932;51.746;14.334;2022-09-29T01:48:42;74.9;;;20.6;;
39214;SDS011;24932;51.746;14.334;2022-09-29T01:52:41;77.4;;;19.6;;
39214;SDS011;24932;51.746;14.334;2022-09-29T01:56:42;87.8;;;19.4;;
39214;SDS011;24932;51.746;14.334;2022-09-29T02:00:40;71.97;;;18.23;;
39214;SDS011;24932;51.746;14.334;2022-09-29T02:04:41;56.6;;;18.0;;
39214;SDS011;24932;51.746;14.334;2022-09-29T02:08:41;73.1;;;20.5;;
39214;SDS011;24932;51.746;14.334;2022-09-29T02:12:40;64.73;;;18.97;;
39214;SDS011;24932;51.746;14.334;2022-09-29T02:16:42;76.83;;;21.4;;
39214;SDS011;24932;51.746;14.334;2022-09-29T02:20:40;70.63;;;20.4;;
39214;SDS011;24932;51.746;14.334;2022-09-29T02:24:40;78.53;;;21.2;;
39214;SDS011;24932;51.746;14.334;2022-09-29T02:28:40;77.7;;;20.07;;
39214;SDS011;24932;51.746;14.334;2022-09-29T02:32:41;77.37;;;19.33;;
39214;SDS011;24932;51.746;14.334;2022-09-29T02:36:41;84.8;;;22.13;;
39214;SDS011;24932;51.746;14.334;2022-09-29T02:40:42;84.87;;;21.43;;
39214;SDS011;24932;51.746;14.334;2022-09-29T02:44:45;76.83;;;19.33;;
39214;SDS011;24932;51.746;14.334;2022-09-29T02:48:45;80.9;;;20.43;;
39214;SDS011;24932;51.746;14.334;2022-09-29T02:52:42;86.83;;;19.6;;
39214;SDS011;24932;51.746;14.334;2022-09-29T02:56:42;68.47;;;21.03;;
39214;SDS011;24932;51.746;14.334;2022-09-29T03:00:40;81.1;;;22.4;;
39214;SDS011;24932;51.746;14.334;2022-09-29T03:04:40;85.93;;;20.27;;
39214;SDS011;24932;51.746;14.334;2022-09-29T03:08:40;70.87;;;19.57;;
39214;SDS011;24932;51.746;14.334;2022-09-29T03:12:41;52.03;;;18.93;;
39214;SDS011;24932;51.746;14.334;2022-09-29T03:16:40;63.8;;;18.97;;
39214;SDS011;24932;51.746;14.334;2022-09-29T03:20:40;74.13;;;18.97;;
39214;SDS011;24932;51.746;14.334;2022-09-29T03:24:40;76.53;;;19.23;;
39214;SDS011;24932;51.746;14.334;2022-09-29T03:28:41;60.8;;;17.73;;
39214;SDS011;24932;51.746;14.334;2022-09-29T03:32:41;58.93;;;18.53;;
39214;SDS011;24932;51.746;14.334;2022-09-29T03:36:41;53.03;;;17.83;;
39214;SDS011;24932;51.746;14.334;2022-09-29T03:40:40;74.0;;;18.9;;
39214;SDS011;24932;51.746;14.334;2022-09-29T03:44:40;80.23;;;20.4;;
39214;SDS011;24932;51.746;14.334;2022-09-29T03:48:40;60.63;;;18.5;;
39214;SDS011;24932;51.746;14.334;2022-09-29T03:52:40;69.6;;;19.37;;
39214;SDS011;24932;51.746;14.334;2022-09-29T03:56:40;72.3;;;19.3;;
39214;SDS011;24932;51.746;14.334;2022-09-29T04:00:41;55.83;;;17.43;;
39214;SDS011;24932;51.746;14.334;2022-09-29T04:04:40;59.73;;;17.9;;
39214;SDS011;24932;51.746;14.334;2022-09-29T04:08:40;68.33;;;18.9;;
39214;SDS011;24932;51.746;14.334;2022-09-29T04:12:40;64.17;;;16.97;;
39214;SDS011;24932;51.746;14.334;2022-09-29T04:16:40;56.7;;;18.08;;
39214;SDS011;24932;51.746;14.334;2022-09-29T04:20:40;50.92;;;17.2;;
39214;SDS011;24932;51.746;14.334;2022-09-29T04:24:39;47.6;;;17.53;;
39214;SDS011;24932;51.746;14.334;2022-09-29T04:28:41;47.03;;;16.6;;
39214;SDS011;24932;51.746;14.334;2022-09-29T04:32:40;40.67;;;14.8;;
39214;SDS011;24932;51.746;14.334;2022-09-29T04:36:40;44.27;;;15.17;;
39214;SDS011;24932;51.746;14.334;2022-09-29T04:40:40;45.67;;;15.8;;
39214;SDS011;24932;51.746;14.334;2022-09-29T04:44:40;41.97;;;16.63;;
39214;SDS011;24932;51.746;14.334;2022-09-29T04:48:40;40.37;;;16.27;;
39214;SDS011;24932;51.746;14.334;2022-09-29T04:52:40;54.17;;;15.15;;
39214;SDS011;24932;51.746;14.334;2022-09-29T04:56:40;48.43;;;16.0;;
39214;SDS011;24932;51.746;14.334;2022-09-29T05:00:40;36.08;;;14.32;;
39214;SDS011;24932;51.746;14.334;2022-09-29T05:04:40;34.83;;;14.4;;
39214;SDS011;24932;51.746;14.334;2022-09-29T05:08:39;36.5;;;13.67;;
39214;SDS011;24932;51.746;14.334;2022-09-29T05:12:40;36.6;;;14.5;;
39214;SDS011;24932;51.746;14.334;2022-09-29T05:16:40;35.73;;;14.4;;
39214;SDS011;24932;51.746;14.334;2022-09-29T05:21:01;44.13;;;13.95;;
39214;SDS011;24932;51.746;14.334;2022-09-29T05:24:40;61.67;;;15.85;;
39214;SDS011;24932;51.746;14.334;2022-09-29T05:28:42;42.33;;;14.05;;
39214;SDS011;24932;51.746;14.334;2022-09-29T05:32:41;36.92;;;13.57;;
39214;SDS011;24932;51.746;14.334;2022-09-29T05:36:41;36.45;;;12.63;;
39214;SDS011;24932;51.746;14.334;2022-09-29T05:40:41;42.13;;;14.38;;
39214;SDS011;24932;51.746;14.334;2022-09-29T05:44:40;42.2;;;15.38;;
39214;SDS011;24932;51.746;14.334;2022-09-29T05:48:40;29.23;;;12.7;;
39214;SDS011;24932;51.746;14.334;2022-09-29T05:52:40;32.97;;;13.73;;
39214;SDS011;24932;51.746;14.334;2022-09-29T05:56:45;35.05;;;13.05;;
39214;SDS011;24932;51.746;14.334;2022-09-29T06:00:40;46.78;;;13.85;;
39214;SDS011;24932;51.746;14.334;2022-09-29T06:04:41;46.3;;;13.45;;
39214;SDS011;24932;51.746;14.334;2022-09-29T06:08:40;28.08;;;12.05;;
39214;SDS011;24932;51.746;14.334;2022-09-29T06:12:41;33.2;;;13.38;;
39214;SDS011;24932;51.746;14.334;2022-09-29T06:16:40;27.85;;;12.88;;
39214;SDS011;24932;51.746;14.334;2022-09-29T06:20:41;28.45;;;11.23;;
39214;SDS011;24932;51.746;14.334;2022-09-29T06:24:40;24.63;;;11.82;;
39214;SDS011;24932;51.746;14.334;2022-09-29T06:28:40;30.77;;;12.48;;
39214;SDS011;24932;51.746;14.334;2022-09-29T06:32:40;24.92;;;11.75;;
39214;SDS011;24932;51.746;14.334;2022-09-29T06:36:41;26.95;;;11.35;;
39214;SDS011;24932;51.746;14.334;2022-09-29T06:40:40;29.5;;;12.23;;
39214;SDS011;24932;51.746;14.334;2022-09-29T06:44:40;26.9;;;12.68;;
39214;SDS011;24932;51.746;14.334;2022-09-29T06:48:40;19.98;;;10.68;;
39214;SDS011;24932;51.746;14.334;2022-09-29T06:52:41;21.42;;;10.2;;
39214;SDS011;24932;51.746;14.334;2022-09-29T06:56:40;19.8;;;9.88;;
39214;SDS011;24932;51.746;14.334;2022-09-29T07:00:41;20.37;;;9.93;;
39214;SDS011;24932;51.746;14.334;2022-09-29T07:04:40;17.65;;;10.07;;
39214;SDS011;24932;51.746;14.334;2022-09-29T07:08:41;17.15;;;9.52;;
39214;SDS011;24932;51.746;14.334;2022-09-29T07:12:40;19.02;;;9.95;;
39214;SDS011;24932;51.746;14.334;2022-09-29T07:16:41;14.27;;;9.52;;
39214;SDS011;24932;51.746;14.334;2022-09-29T07:20:40;16.27;;;9.32;;
39214;SDS011;24932;51.746;14.334;2022-09-29T07:24:41;13.77;;;7.9;;
39214;SDS011;24932;51.746;14.334;2022-09-29T07:28:40;12.75;;;7.72;;
39214;SDS011;24932;51.746;14.334;2022-09-29T07:32:42;10.32;;;7.43;;
39214;SDS011;24932;51.746;14.334;2022-09-29T07:36:40;10.43;;;6.8;;
39214;SDS011;24932;51.746;14.334;2022-09-29T07:40:40;10.13;;;7.53;;
39214;SDS011;24932;51.746;14.334;2022-09-29T07:44:40;11.4;;;7.53;;
39214;SDS011;24932;51.746;14.334;2022-09-29T07:48:41;15.5;;;7.47;;
39214;SDS011;24932;51.746;14.334;2022-09-29T07:52:40;13.07;;;7.72;;
39214;SDS011;24932;51.746;14.334;2022-09-29T07:56:40;13.65;;;8.52;;
39214;SDS011;24932;51.746;14.334;2022-09-29T08:00:40;13.88;;;7.25;;
39214;SDS011;24932;51.746;14.334;2022-09-29T08:04:41;11.05;;;7.32;;
39214;SDS011;24932;51.746;14.334;2022-09-29T08:08:41;10.23;;;6.97;;
39214;SDS011;24932;51.746;14.334;2022-09-29T08:12:44;11.12;;;6.85;;
39214;SDS011;24932;51.746;14.334;2022-09-29T08:16:40;11.05;;;7.03;;
39214;SDS011;24932;51.746;14.334;2022-09-29T08:20:40;11.95;;;7.45;;
39214;SDS011;24932;51.746;14.334;2022-09-29T08:24:40;12.05;;;7.68;;
39214;SDS011;24932;51.746;14.334;2022-09-29T08:28:40;11.7;;;7.03;;
39214;SDS011;24932;51.746;14.334;2022-09-29T08:32:40;10.63;;;7.28;;
39214;SDS011;24932;51.746;14.334;2022-09-29T08:36:40;10.52;;;6.97;;
39214;SDS011;24932;51.746;14.334;2022-09-29T08:40:41;9.77;;;6.97;;
39214;SDS011;24932;51.746;14.334;2022-09-29T08:44:42;10.15;;;7.2;;
39214;SDS011;24932;51.746;14.334;2022-09-29T08:48:56;12.45;;;7.18;;
39214;SDS011;24932;51.746;14.334;2022-09-29T08:52:53;12.02;;;6.87;;
39214;SDS011;24932;51.746;14.334;2022-09-29T08:56:41;11.73;;;6.9;;
39214;SDS011;24932;51.746;14.334;2022-09-29T09:00:41;10.5;;;6.75;;
39214;SDS011;24932;51.746;14.334;2022-09-29T09:04:44;8.68;;;7.05;;
39214;SDS011;24932;51.746;14.334;2022-09-29T09:08:44;9.2;;;6.82;;
39214;SDS011;24932;51.746;14.334;2022-09-29T09:13:49;10.85;;;6.43;;
39214;SDS011;24932;51.746;14.334;2022-09-29T09:16:42;9.1;;;6.18;;
39214;SDS011;24932;51.746;14.334;2022-09-29T09:20:40;7.72;;;5.85;;
39214;SDS011;24932;51.746;14.334;2022-09-29T09:24:41;8.45;;;5.87;;
39214;SDS011;24932;51.746;14.334;2022-09-29T09:28:41;7.62;;;5.47;;
39214;SDS011;24932;51.746;14.334;2022-09-29T09:32:41;7.0;;;4.87;;
39214;SDS011;24932;51.746;14.334;2022-09-29T09:36:41;10.73;;;5.07;;
39214;SDS011;24932;51.746;14.334;2022-09-29T09:40:41;5.05;;;3.83;;
39214;SDS011;24932;51.746;14.334;2022-09-29T09:44:41;5.35;;;4.65;;
39214;SDS011;24932;51.746;14.334;2022-09-29T09:48:41;7.5;;;3.75;;
39214;SDS011;24932;51.746;14.334;2022-09-29T09:52:42;6.57;;;4.5;;
39214;SDS011;24932;51.746;14.334;2022-09-29T09:56:43;7.03;;;3.15;;
39214;SDS011;24932;51.746;14.334;2022-09-29T10:00:41;10.2;;;3.4;;
39214;SDS011;24932;51.746;14.334;2022-09-29T10:04:40;3.9;;;2.37;;
39214;SDS011;24932;51.746;14.334;2022-09-29T10:08:39;4.07;;;2.75;;
39214;SDS011;24932;51.746;14.334;2022-09-29T10:12:40;5.03;;;2.78;;
39214;SDS011;24932;51.746;14.334;2022-09-29T10:16:42;3.58;;;2.53;;
39214;SDS011;24932;51.746;14.334;2022-09-29T10:20:41;3.87;;;2.6;;
39214;SDS011;24932;51.746;14.334;2022-09-29T10:24:40;2.62;;;2.3;;
39214;SDS011;24932;51.746;14.334;2022-09-29T10:28:42;2.85;;;2.53;;
39214;SDS011;24932;51.746;14.334;2022-09-29T10:32:40;3.8;;;1.98;;
39214;SDS011;24932;51.746;14.334;2022-09-29T10:36:46;2.92;;;2.17;;
39214;SDS011;24932;51.746;14.334;2022-09-29T10:40:45;5.97;;;3.45;;
39214;SDS011;24932;51.746;14.334;2022-09-29T10:44:41;7.85;;;3.3;;
39214;SDS011;24932;51.746;14.334;2022-09-29T10:48:40;5.45;;;3.9;;
39214;SDS011;24932;51.746;14.334;2022-09-29T10:52:41;5.3;;;3.53;;
39214;SDS011;24932;51.746;14.334;2022-09-29T10:56:43;3.17;;;2.3;;
39214;SDS011;24932;51.746;14.334;2022-09-29T11:00:40;4.37;;;3.0;;
39214;SDS011;24932;51.746;14.334;2022-09-29T11:04:40;3.83;;;2.95;;
39214;SDS011;24932;51.746;14.334;2022-09-29T11:08:56;4.1;;;2.87;;
39214;SDS011;24932;51.746;14.334;2022-09-29T11:12:40;3.97;;;3.12;;
39214;SDS011;24932;51.746;14.334;2022-09-29T11:16:40;4.97;;;3.8;;
39214;SDS011;24932;51.746;14.334;2022-09-29T11:20:40;5.68;;;3.22;;
39214;SDS011;24932;51.746;14.334;2022-09-29T11:24:43;3.53;;;3.22;;
39214;SDS011;24932;51.746;14.334;2022-09-29T11:28:44;5.03;;;4.07;;
39214;SDS011;24932;51.746;14.334;2022-09-29T11:32:42;5.9;;;4.43;;
39214;SDS011;24932;51.746;14.334;2022-09-29T11:36:41;3.67;;;3.25;;
39214;SDS011;24932;51.746;14.334;2022-09-29T11:40:44;2.5;;;2.3;;
39214;SDS011;24932;51.746;14.334;2022-09-29T11:44:48;3.37;;;2.58;;
39214;SDS011;24932;51.746;14.334;2022-09-29T11:48:47;5.2;;;3.1;;
39214;SDS011;24932;51.746;14.334;2022-09-29T11:52:44;3.2;;;2.72;;
39214;SDS011;24932;51.746;14.334;2022-09-29T11:56:42;7.28;;;2.78;;
39214;SDS011;24932;51.746;14.334;2022-09-29T12:00:44;4.6;;;2.12;;
39214;SDS011;24932;51.746;14.334;2022-09-29T12:04:41;3.15;;;2.67;;
39214;SDS011;24932;51.746;14.334;2022-09-29T12:08:42;3.45;;;2.85;;
39214;SDS011;24932;51.746;14.334;2022-09-29T12:12:42;4.32;;;3.22;;
39214;SDS011;24932;51.746;14.334;2022-09-29T12:16:41;3.53;;;2.67;;
39214;SDS011;24932;51.746;14.334;2022-09-29T12:20:42;4.43;;;3.0;;
39214;SDS011;24932;51.746;14.334;2022-09-29T12:24:41;2.5;;;2.3;;
39214;SDS011;24932;51.746;14.334;2022-09-29T12:28:41;5.78;;;2.28;;
39214;SDS011;24932;51.746;14.334;2022-09-29T12:32:42;4.45;;;2.35;;
39214;SDS011;24932;51.746;14.334;2022-09-29T12:36:43;4.32;;;2.2;;
39214;SDS011;24932;51.746;14.334;2022-09-29T12:40:41;4.85;;;2.45;;
39214;SDS011;24932;51.746;14.334;2022-09-29T12:44:41;2.25;;;2.05;;
39214;SDS011;24932;51.746;14.334;2022-09-29T12:48:43;4.47;;;2.3;;
39214;SDS011;24932;51.746;14.334;2022-09-29T12:52:43;6.22;;;2.03;;
39214;SDS011;24932;51.746;14.334;2022-09-29T12:56:42;2.3;;;2.1;;
39214;SDS011;24932;51.746;14.334;2022-09-29T13:00:41;2.12;;;1.6;;
39214;SDS011;24932;51.746;14.334;2022-09-29T13:05:17;2.45;;;1.8;;
39214;SDS011;24932;51.746;14.334;2022-09-29T13:08:44;2.15;;;1.37;;
39214;SDS011;24932;51.746;14.334;2022-09-29T13:12:51;1.48;;;1.0;;
39214;SDS011;24932;51.746;14.334;2022-09-29T13:16:44;1.48;;;0.93;;
39214;SDS011;24932;51.746;14.334;2022-09-29T13:20:44;1.25;;;0.7;;
39214;SDS011;24932;51.746;14.334;2022-09-29T13:24:45;0.98;;;0.68;;
39214;SDS011;24932;51.746;14.334;2022-09-29T13:28:41;1.87;;;0.8;;
39214;SDS011;24932;51.746;14.334;2022-09-29T13:32:41;0.93;;;0.52;;
39214;SDS011;24932;51.746;14.334;2022-09-29T13:36:40;0.7;;;0.5;;
39214;SDS011;24932;51.746;14.334;2022-09-29T13:40:41;1.48;;;1.02;;
39214;SDS011;24932;51.746;14.334;2022-09-29T13:44:40;2.58;;;0.9;;
39214;SDS011;24932;51.746;14.334;2022-09-29T13:48:50;0.8;;;0.8;;
39214;SDS011;24932;51.746;14.334;2022-09-29T13:52:41;2.3;;;0.75;;
39214;SDS011;24932;51.746;14.334;2022-09-29T13:56:40;2.53;;;0.8;;
39214;SDS011;24932;51.746;14.334;2022-09-29T14:00:41;0.8;;;0.77;;
39214;SDS011;24932;51.746;14.334;2022-09-29T14:04:43;2.72;;;0.93;;
39214;SDS011;24932;51.746;14.334;2022-09-29T14:08:42;0.62;;;0.5;;
39214;SDS011;24932;51.746;14.334;2022-09-29T14:12:40;0.82;;;0.6;;
39214;SDS011;24932;51.746;14.334;2022-09-29T14:16:44;1.33;;;0.73;;
39214;SDS011;24932;51.746;14.334;2022-09-29T14:20:46;0.95;;;0.8;;
39214;SDS011;24932;51.746;14.334;2022-09-29T14:24:41;2.05;;;0.6;;
39214;SDS011;24932;51.746;14.334;2022-09-29T14:28:40;2.15;;;0.7;;
39214;SDS011;24932;51.746;14.334;2022-09-29T14:32:41;0.73;;;0.6;;
39214;SDS011;24932;51.746;14.334;2022-09-29T14:36:40;0.8;;;0.73;;
39214;SDS011;24932;51.746;14.334;2022-09-29T14:40:52;1.75;;;1.17;;
39214;SDS011;24932;51.746;14.334;2022-09-29T14:44:41;2.1;;;1.05;;
39214;SDS011;24932;51.746;14.334;2022-09-29T14:48:42;2.55;;;1.02;;
39214;SDS011;24932;51.746;14.334;2022-09-29T14:52:43;1.48;;;1.05;;
39214;SDS011;24932;51.746;14.334;2022-09-29T14:56:44;3.03;;;1.5;;
39214;SDS011;24932;51.746;14.334;2022-09-29T15:00:48;3.0;;;1.23;;
39214;SDS011;24932;51.746;14.334;2022-09-29T15:04:40;1.08;;;0.9;;
39214;SDS011;24932;51.746;14.334;2022-09-29T15:08:41;1.62;;;1.3;;
39214;SDS011;24932;51.746;14.334;2022-09-29T15:12:40;2.22;;;1.67;;
39214;SDS011;24932;51.746;14.334;2022-09-29T15:16:42;3.72;;;1.4;;
39214;SDS011;24932;51.746;14.334;2022-09-29T15:20:45;2.05;;;1.27;;
39214;SDS011;24932;51.746;14.334;2022-09-29T15:24:45;1.12;;;1.02;;
39214;SDS011;24932;51.746;14.334;2022-09-29T15:28:41;2.5;;;1.3;;
39214;SDS011;24932;51.746;14.334;2022-09-29T15:32:41;4.65;;;1.12;;
39214;SDS011;24932;51.746;14.334;2022-09-29T15:36:40;2.1;;;1.02;;
39214;SDS011;24932;51.746;14.334;2022-09-29T15:40:40;1.55;;;1.1;;
39214;SDS011;24932;51.746;14.334;2022-09-29T15:44:43;0.82;;;0.75;;
39214;SDS011;24932;51.746;14.334;2022-09-29T15:48:40;1.02;;;0.98;;
39214;SDS011;24932;51.746;14.334;2022-09-29T15:52:39;4.72;;;1.25;;
39214;SDS011;24932;51.746;14.334;2022-09-29T15:56:41;5.28;;;1.5;;
39214;SDS011;24932;51.746;14.334;2022-09-29T16:00:42;2.83;;;1.42;;
39214;SDS011;24932;51.746;14.334;2022-09-29T16:04:41;2.25;;;1.87;;
39214;SDS011;24932;51.746;14.334;2022-09-29T16:08:42;3.5;;;1.7;;
39214;SDS011;24932;51.746;14.334;2022-09-29T16:12:44;4.6;;;1.4;;
39214;SDS011;24932;51.746;14.334;2022-09-29T16:16:41;3.8;;;2.0;;
39214;SDS011;24932;51.746;14.334;2022-09-29T16:20:41;3.45;;;1.77;;
39214;SDS011;24932;51.746;14.334;2022-09-29T16:24:50;2.65;;;1.73;;
39214;SDS011;24932;51.746;14.334;2022-09-29T16:28:57;6.78;;;2.47;;
39214;SDS011;24932;51.746;14.334;2022-09-29T16:32:43;4.0;;;2.25;;
39214;SDS011;24932;51.746;14.334;2022-09-29T16:36:40;2.0;;;1.8;;
39214;SDS011;24932;51.746;14.334;2022-09-29T16:40:40;5.3;;;1.77;;
39214;SDS011;24932;51.746;14.334;2022-09-29T16:44:41;5.8;;;2.17;;
39214;SDS011;24932;51.746;14.334;2022-09-29T16:48:41;6.18;;;2.67;;
39214;SDS011;24932;51.746;14.334;2022-09-29T16:52:41;4.0;;;2.37;;
39214;SDS011;24932;51.746;14.334;2022-09-29T16:56:40;3.97;;;2.53;;
39214;SDS011;24932;51.746;14.334;2022-09-29T17:00:43;8.15;;;4.68;;
39214;SDS011;24932;51.746;14.334;2022-09-29T17:04:40;5.95;;;2.87;;
39214;SDS011;24932;51.746;14.334;2022-09-29T17:08:40;8.45;;;3.62;;
39214;SDS011;24932;51.746;14.334;2022-09-29T17:12:40;7.68;;;3.83;;
39214;SDS011;24932;51.746;14.334;2022-09-29T17:16:40;7.9;;;5.55;;
39214;SDS011;24932;51.746;14.334;2022-09-29T17:20:39;8.52;;;5.35;;
39214;SDS011;24932;51.746;14.334;2022-09-29T17:24:40;11.82;;;6.43;;
39214;SDS011;24932;51.746;14.334;2022-09-29T17:28:40;10.65;;;5.4;;
39214;SDS011;24932;51.746;14.334;2022-09-29T17:32:40;9.2;;;5.75;;
39214;SDS011;24932;51.746;14.334;2022-09-29T17:36:41;9.45;;;6.03;;
39214;SDS011;24932;51.746;14.334;2022-09-29T17:40:44;11.02;;;6.65;;
39214;SDS011;24932;51.746;14.334;2022-09-29T17:44:40;8.48;;;5.85;;
39214;SDS011;24932;51.746;14.334;2022-09-29T17:48:41;12.7;;;6.97;;
39214;SDS011;24932;51.746;14.334;2022-09-29T17:52:40;11.82;;;6.37;;
39214;SDS011;24932;51.746;14.334;2022-09-29T17:56:41;10.93;;;7.15;;
39214;SDS011;24932;51.746;14.334;2022-09-29T18:00:42;15.52;;;7.15;;
39214;SDS011;24932;51.746;14.334;2022-09-29T18:04:40;14.68;;;7.72;;
39214;SDS011;24932;51.746;14.334;2022-09-29T18:08:40;9.82;;;7.0;;
39214;SDS011;24932;51.746;14.334;2022-09-29T18:12:40;10.75;;;7.25;;
39214;SDS011;24932;51.746;14.334;2022-09-29T18:16:40;12.25;;;7.97;;
39214;SDS011;24932;51.746;14.334;2022-09-29T18:20:41;13.43;;;9.02;;
39214;SDS011;24932;51.746;14.334;2022-09-29T18:24:41;13.35;;;7.15;;
39214;SDS011;24932;51.746;14.334;2022-09-29T18:28:40;19.95;;;9.77;;
39214;SDS011;24932;51.746;14.334;2022-09-29T18:32:41;20.7;;;9.75;;
39214;SDS011;24932;51.746;14.334;2022-09-29T18:36:40;13.88;;;9.32;;
39214;SDS011;24932;51.746;14.334;2022-09-29T18:40:40;14.7;;;7.25;;
39214;SDS011;24932;51.746;14.334;2022-09-29T18:44:40;12.52;;;7.93;;
39214;SDS011;24932;51.746;14.334;2022-09-29T18:48:40;12.9;;;7.68;;
39214;SDS011;24932;51.746;14.334;2022-09-29T18:52:40;11.68;;;8.15;;
39214;SDS011;24932;51.746;14.334;2022-09-29T18:56:40;16.48;;;6.7;;
39214;SDS011;24932;51.746;14.334;2022-09-29T19:00:42;12.05;;;5.35;;
39214;SDS011;24932;51.746;14.334;2022-09-29T19:04:40;7.22;;;5.5;;
39214;SDS011;24932;51.746;14.334;2022-09-29T19:08:39;10.05;;;6.8;;
39214;SDS011;24932;51.746;14.334;2022-09-29T19:12:41;9.15;;;5.93;;
39214;SDS011;24932;51.746;14.334;2022-09-29T19:16:41;10.18;;;5.82;;
39214;SDS011;24932;51.746;14.334;2022-09-29T19:20:40;15.7;;;7.43;;
39214;SDS011;24932;51.746;14.334;2022-09-29T19:24:40;8.33;;;5.77;;
39214;SDS011;24932;51.746;14.334;2022-09-29T19:28:40;9.57;;;5.3;;
39214;SDS011;24932;51.746;14.334;2022-09-29T19:32:41;10.5;;;5.97;;
39214;SDS011;24932;51.746;14.334;2022-09-29T19:36:41;10.37;;;6.33;;
39214;SDS011;24932;51.746;14.334;2022-09-29T19:40:41;9.93;;;6.97;;
39214;SDS011;24932;51.746;14.334;2022-09-29T19:44:40;10.33;;;7.13;;
39214;SDS011;24932;51.746;14.334;2022-09-29T19:48:40;11.27;;;6.83;;
39214;SDS011;24932;51.746;14.334;2022-09-29T19:52:40;11.53;;;6.5;;
39214;SDS011;24932;51.746;14.334;2022-09-29T19:56:41;20.53;;;9.77;;
39214;SDS011;24932;51.746;14.334;2022-09-29T20:00:40;16.13;;;10.1;;
39214;SDS011;24932;51.746;14.334;2022-09-29T20:04:41;21.27;;;10.6;;
39214;SDS011;24932;51.746;14.334;2022-09-29T20:08:40;14.43;;;9.87;;
39214;SDS011;24932;51.746;14.334;2022-09-29T20:12:40;22.67;;;11.23;;
39214;SDS011;24932;51.746;14.334;2022-09-29T20:16:42;13.6;;;9.03;;
39214;SDS011;24932;51.746;14.334;2022-09-29T20:20:40;21.53;;;10.0;;
39214;SDS011;24932;51.746;14.334;2022-09-29T20:24:40;14.43;;;8.53;;
39214;SDS011;24932;51.746;14.334;2022-09-29T20:28:40;10.13;;;8.1;;
39214;SDS011;24932;51.746;14.334;2022-09-29T20:32:41;17.33;;;8.63;;
39214;SDS011;24932;51.746;14.334;2022-09-29T20:36:40;13.63;;;8.33;;
39214;SDS011;24932;51.746;14.334;2022-09-29T20:40:40;13.37;;;8.47;;
39214;SDS011;24932;51.746;14.334;2022-09-29T20:44:41;21.33;;;10.03;;
39214;SDS011;24932;51.746;14.334;2022-09-29T20:48:40;14.5;;;7.8;;
39214;SDS011;24932;51.746;14.334;2022-09-29T20:52:40;16.4;;;8.77;;
39214;SDS011;24932;51.746;14.334;2022-09-29T20:56:40;14.03;;;7.87;;
39214;SDS011;24932;51.746;14.334;2022-09-29T21:00:40;13.03;;;7.93;;
39214;SDS011;24932;51.746;14.334;2022-09-29T21:04:40;16.07;;;8.43;;
39214;SDS011;24932;51.746;14.334;2022-09-29T21:08:40;15.07;;;7.83;;
39214;SDS011;24932;51.746;14.334;2022-09-29T21:12:40;15.27;;;7.83;;
39214;SDS011;24932;51.746;14.334;2022-09-29T21:16:41;15.17;;;7.6;;
39214;SDS011;24932;51.746;14.334;2022-09-29T21:20:40;15.83;;;8.07;;
39214;SDS011;24932;51.746;14.334;2022-09-29T21:26:00;12.87;;;7.6;;
39214;SDS011;24932;51.746;14.334;2022-09-29T21:28:41;13.13;;;7.43;;
39214;SDS011;24932;51.746;14.334;2022-09-29T21:32:39;21.77;;;8.43;;
39214;SDS011;24932;51.746;14.334;2022-09-29T21:36:40;17.0;;;8.13;;
39214;SDS011;24932;51.746;14.334;2022-09-29T21:40:41;21.73;;;8.27;;
39214;SDS011;24932;51.746;14.334;2022-09-29T21:44:40;18.73;;;8.37;;
39214;SDS011;24932;51.746;14.334;2022-09-29T21:48:40;17.17;;;8.3;;
39214;SDS011;24932;51.746;14.334;2022-09-29T21:52:40;17.73;;;9.17;;
39214;SDS011;24932;51.746;14.334;2022-09-29T21:56:41;21.5;;;9.0;;
39214;SDS011;24932;51.746;14.334;2022-09-29T22:00:40;18.67;;;8.57;;
39214;SDS011;24932;51.746;14.334;2022-09-29T22:04:40;18.27;;;8.83;;
39214;SDS011;24932;51.746;14.334;2022-09-29T22:08:41;17.17;;;9.13;;
39214;SDS011;24932;51.746;14.334;2022-09-29T22:12:41;17.83;;;9.87;;
39214;SDS011;24932;51.746;14.334;2022-09-29T22:16:40;21.43;;;10.0;;
39214;SDS011;24932;51.746;14.334;2022-09-29T22:20:40;14.47;;;9.5;;
39214;SDS011;24932;51.746;14.334;2022-09-29T22:24:41;22.03;;;10.8;;
39214;SDS011;24932;51.746;14.334;2022-09-29T22:28:41;24.03;;;9.97;;
39214;SDS011;24932;51.746;14.334;2022-09-29T22:32:40;24.57;;;10.47;;
39214;SDS011;24932;51.746;14.334;2022-09-29T22:36:40;23.1;;;10.6;;
39214;SDS011;24932;51.746;14.334;2022-09-29T22:40:40;16.77;;;9.6;;
39214;SDS011;24932;51.746;14.334;2022-09-29T22:44:40;22.07;;;11.07;;
39214;SDS011;24932;51.746;14.334;2022-09-29T22:48:40;23.53;;;11.27;;
39214;SDS011;24932;51.746;14.334;2022-09-29T22:52:41;20.77;;;10.47;;
39214;SDS011;24932;51.746;14.334;2022-09-29T22:56:41;20.4;;;11.03;;
39214;SDS011;24932;51.746;14.334;2022-09-29T23:00:40;17.17;;;10.2;;
39214;SDS011;24932;51.746;14.334;2022-09-29T23:04:40;16.97;;;9.93;;
39214;SDS011;24932;51.746;14.334;2022-09-29T23:08:40;24.63;;;11.1;;
39214;SDS011;24932;51.746;14.334;2022-09-29T23:12:40;27.17;;;11.53;;
39214;SDS011;24932;51.746;14.334;2022-09-29T23:16:40;21.23;;;10.57;;
39214;SDS011;24932;51.746;14.334;2022-09-29T23:20:40;21.43;;;10.7;;
39214;SDS011;24932;51.746;14.334;2022-09-29T23:24:40;28.6;;;9.9;;
39214;SDS011;24932;51.746;14.334;2022-09-29T23:28:40;19.63;;;9.4;;
39214;SDS011;24932;51.746;14.334;2022-09-29T23:32:40;19.57;;;8.8;;